Minot Air Force Base, ND (58704)

1:43 AM CDT on August 26, 2016 (GMT -0500)
APRSWXNET | | Change Station

Elev 1574 ft 48.45 °N, 101.22 °W | Updated 24 minutes ago

Overcast
Overcast
52 °F
Feels Like 52 °F
N
3
Wind Variable Wind from SSW
Gusts 5.0 mph

Today
High -- | Low -- °F
--% Chance of Precip.
Yesterday
High -- | Low -- °F
Precip. -- in
Pressure 30.08 in
Visibility 10.0 miles
Clouds Overcast 10000 ft
Dew Point 42 °F
Humidity 68%
Rainfall in
Snow Depth Not available.
6:55 AM 8:37 PM
Last Quarter, 37% visible
METAR KMIB 260558Z AUTO 19005KT 10SM OVC100 13/06 A3006 RMK AO2 SLP184 T01290059 10228 20105 402350105 53002
Pressure 30.08 in
Visibility 10.0 miles
Clouds Overcast 10000 ft
Dew Point 42 °F
Humidity 68%
Rainfall in
Snow Depth Not available.
6:55 AM 8:37 PM
Last Quarter, 37% visible
METAR KMIB 260558Z AUTO 19005KT 10SM OVC100 13/06 A3006 RMK AO2 SLP184 T01290059 10228 20105 402350105 53002

10-Day Weather Forecast

Almanac

Astronomy

Aug. 26, 2016 Rise Set
Actual Time
Civil Twilight
Nautical Twilight
Astronomical Twilight
Moon
Length of Visible Light
Length of Day
Tomorrow will be .
, % of the Moon is Illuminated

Today's Extremes

State Highs State Lows

Community

WunderPhotos

Upload Photos

1,935,063 photos uploaded!

WunderBlog® & News

Nearby

Air Quality

  Air Quality AQ Index Pollutant
Not available.

Snow Depth

Station Depth Elevation

Earthquake Activity

City Distance Mag. Time & Date
Minimum magnitude displayed is 2.5.

Coastal Water Temperatures

Place Temperature

Stations

Nearby Weather Stations

Station Location Temp. Windchill Dew Point Humidity Wind Precip. Elev Updated Type
                   

Watches & Warnings

There are currently no watches in effect.